Lake Sumner, New Mexico
Current Conditions -  °F | °C
As of 4:56 AM on Saturday 01 Nov 2014 (Local Time) from K4MR Reporting Station
Broken Clouds Broken Clouds  
Wind Chill:   Ceiling: 22000
Heat Index:   Visibility: 10mi
Dew Point: -1°   Wind: 6mph
Humidity: 66%   Direction: 180°S
Pressure: 30.28"   Gusts: NA
Location:  34.3001°N, 104.256°W
Report Text: K4MR 011056Z AUTO 18005KT 10SM FEW100 BKN220 05/00 A3028 RMK AO2 SLP231 T00541005
Loading
Personal Weather Stations






























Interactive Weather Map
Tropical Storm Tracking
New forecast layout! Learn more

10-Day Weather Forecast

Advertisements
Track Severe Weather on mobile